sensor_id;sensor_type;location;lat;lon;timestamp;temperature;humidity
67799;SHT30;54596;43.216;27.904;2023-04-24T00:01:13;10.14;84.39
67799;SHT30;54596;43.216;27.904;2023-04-24T00:03:39;10.10;84.16
67799;SHT30;54596;43.216;27.904;2023-04-24T00:06:05;10.04;83.47
67799;SHT30;54596;43.216;27.904;2023-04-24T00:08:33;9.94;83.51
67799;SHT30;54596;43.216;27.904;2023-04-24T00:11:00;9.89;83.33
67799;SHT30;54596;43.216;27.904;2023-04-24T00:13:25;9.86;83.02
67799;SHT30;54596;43.216;27.904;2023-04-24T00:15:51;9.85;83.07
67799;SHT30;54596;43.216;27.904;2023-04-24T00:18:16;9.87;82.98
67799;SHT30;54596;43.216;27.904;2023-04-24T00:20:42;9.86;83.45
67799;SHT30;54596;43.216;27.904;2023-04-24T00:23:09;9.89;83.27
67799;SHT30;54596;43.216;27.904;2023-04-24T00:25:34;9.87;83.20
67799;SHT30;54596;43.216;27.904;2023-04-24T00:28:00;9.90;82.95
67799;SHT30;54596;43.216;27.904;2023-04-24T00:30:25;9.89;82.86
67799;SHT30;54596;43.216;27.904;2023-04-24T00:32:51;9.85;83.13
67799;SHT30;54596;43.216;27.904;2023-04-24T00:35:16;9.75;83.61
67799;SHT30;54596;43.216;27.904;2023-04-24T00:37:42;9.76;83.85
67799;SHT30;54596;43.216;27.904;2023-04-24T00:40:08;9.65;84.40
67799;SHT30;54596;43.216;27.904;2023-04-24T00:42:34;9.68;84.35
67799;SHT30;54596;43.216;27.904;2023-04-24T00:45:00;9.72;84.40
67799;SHT30;54596;43.216;27.904;2023-04-24T00:47:26;9.66;84.79
67799;SHT30;54596;43.216;27.904;2023-04-24T00:49:52;9.66;84.66
67799;SHT30;54596;43.216;27.904;2023-04-24T00:52:17;9.61;85.03
67799;SHT30;54596;43.216;27.904;2023-04-24T00:54:44;9.61;85.05
67799;SHT30;54596;43.216;27.904;2023-04-24T00:57:10;9.55;85.18
67799;SHT30;54596;43.216;27.904;2023-04-24T00:59:36;9.56;85.21
67799;SHT30;54596;43.216;27.904;2023-04-24T01:02:02;9.55;85.21
67799;SHT30;54596;43.216;27.904;2023-04-24T01:04:28;9.52;85.09
67799;SHT30;54596;43.216;27.904;2023-04-24T01:06:54;9.58;84.83
67799;SHT30;54596;43.216;27.904;2023-04-24T01:09:23;9.46;85.18
67799;SHT30;54596;43.216;27.904;2023-04-24T01:11:49;9.48;84.85
67799;SHT30;54596;43.216;27.904;2023-04-24T01:14:15;9.45;84.77
67799;SHT30;54596;43.216;27.904;2023-04-24T01:16:40;9.52;84.42
67799;SHT30;54596;43.216;27.904;2023-04-24T01:19:07;9.48;84.46
67799;SHT30;54596;43.216;27.904;2023-04-24T01:21:36;9.44;84.80
67799;SHT30;54596;43.216;27.904;2023-04-24T01:24:03;9.36;85.05
67799;SHT30;54596;43.216;27.904;2023-04-24T01:26:29;9.39;84.90
67799;SHT30;54596;43.216;27.904;2023-04-24T01:28:55;9.28;85.45
67799;SHT30;54596;43.216;27.904;2023-04-24T01:31:21;9.27;85.55
67799;SHT30;54596;43.216;27.904;2023-04-24T01:33:47;9.25;85.68
67799;SHT30;54596;43.216;27.904;2023-04-24T01:36:13;9.34;85.51
67799;SHT30;54596;43.216;27.904;2023-04-24T01:38:39;9.27;85.60
67799;SHT30;54596;43.216;27.904;2023-04-24T01:41:04;9.25;85.58
67799;SHT30;54596;43.216;27.904;2023-04-24T01:43:30;9.24;85.51
67799;SHT30;54596;43.216;27.904;2023-04-24T01:45:55;9.21;85.70
67799;SHT30;54596;43.216;27.904;2023-04-24T01:48:22;9.20;85.67
67799;SHT30;54596;43.216;27.904;2023-04-24T01:50:47;9.13;86.05
67799;SHT30;54596;43.216;27.904;2023-04-24T01:53:13;9.08;85.97
67799;SHT30;54596;43.216;27.904;2023-04-24T01:55:38;9.13;85.94
67799;SHT30;54596;43.216;27.904;2023-04-24T01:58:04;9.07;86.15
67799;SHT30;54596;43.216;27.904;2023-04-24T02:00:30;9.00;86.28
67799;SHT30;54596;43.216;27.904;2023-04-24T02:02:55;8.99;86.23
67799;SHT30;54596;43.216;27.904;2023-04-24T02:05:21;8.96;86.31
67799;SHT30;54596;43.216;27.904;2023-04-24T02:07:46;8.97;86.24
67799;SHT30;54596;43.216;27.904;2023-04-24T02:10:12;8.94;86.47
67799;SHT30;54596;43.216;27.904;2023-04-24T02:12:37;8.94;86.61
67799;SHT30;54596;43.216;27.904;2023-04-24T02:15:03;8.93;86.69
67799;SHT30;54596;43.216;27.904;2023-04-24T02:17:29;8.89;86.94
67799;SHT30;54596;43.216;27.904;2023-04-24T02:19:55;8.92;86.46
67799;SHT30;54596;43.216;27.904;2023-04-24T02:22:21;8.93;86.42
67799;SHT30;54596;43.216;27.904;2023-04-24T02:25:05;8.94;86.17
67799;SHT30;54596;43.216;27.904;2023-04-24T02:27:31;8.99;86.16
67799;SHT30;54596;43.216;27.904;2023-04-24T02:29:57;9.06;85.46
67799;SHT30;54596;43.216;27.904;2023-04-24T02:32:22;9.03;85.79
67799;SHT30;54596;43.216;27.904;2023-04-24T02:34:48;9.07;85.38
67799;SHT30;54596;43.216;27.904;2023-04-24T02:37:13;9.16;84.89
67799;SHT30;54596;43.216;27.904;2023-04-24T02:39:39;9.20;84.65
67799;SHT30;54596;43.216;27.904;2023-04-24T02:42:04;9.20;84.73
67799;SHT30;54596;43.216;27.904;2023-04-24T02:44:30;9.24;84.45
67799;SHT30;54596;43.216;27.904;2023-04-24T02:46:56;9.23;84.56
67799;SHT30;54596;43.216;27.904;2023-04-24T02:49:21;9.13;83.85
67799;SHT30;54596;43.216;27.904;2023-04-24T02:51:46;9.20;83.46
67799;SHT30;54596;43.216;27.904;2023-04-24T02:54:12;9.24;83.23
67799;SHT30;54596;43.216;27.904;2023-04-24T02:56:37;9.28;83.11
67799;SHT30;54596;43.216;27.904;2023-04-24T02:59:03;9.31;83.12
67799;SHT30;54596;43.216;27.904;2023-04-24T03:01:29;9.28;83.04
67799;SHT30;54596;43.216;27.904;2023-04-24T03:03:54;9.31;82.91
67799;SHT30;54596;43.216;27.904;2023-04-24T03:06:19;9.25;83.05
67799;SHT30;54596;43.216;27.904;2023-04-24T03:08:46;9.35;82.92
67799;SHT30;54596;43.216;27.904;2023-04-24T03:11:11;9.34;82.67
67799;SHT30;54596;43.216;27.904;2023-04-24T03:13:37;9.42;82.33
67799;SHT30;54596;43.216;27.904;2023-04-24T03:16:02;9.52;81.86
67799;SHT30;54596;43.216;27.904;2023-04-24T03:18:28;9.55;81.90
67799;SHT30;54596;43.216;27.904;2023-04-24T03:20:53;9.53;81.98
67799;SHT30;54596;43.216;27.904;2023-04-24T03:23:19;9.61;82.46
67799;SHT30;54596;43.216;27.904;2023-04-24T03:25:44;9.66;82.12
67799;SHT30;54596;43.216;27.904;2023-04-24T03:28:10;9.66;82.22
67799;SHT30;54596;43.216;27.904;2023-04-24T03:30:36;9.66;82.80
67799;SHT30;54596;43.216;27.904;2023-04-24T03:33:01;9.76;83.42
67799;SHT30;54596;43.216;27.904;2023-04-24T03:35:27;9.75;83.25
67799;SHT30;54596;43.216;27.904;2023-04-24T03:37:52;9.79;83.68
67799;SHT30;54596;43.216;27.904;2023-04-24T03:40:18;9.82;83.53
67799;SHT30;54596;43.216;27.904;2023-04-24T03:42:43;9.85;84.00
67799;SHT30;54596;43.216;27.904;2023-04-24T03:45:09;9.87;84.34
67799;SHT30;54596;43.216;27.904;2023-04-24T03:47:35;9.89;85.38
67799;SHT30;54596;43.216;27.904;2023-04-24T03:50:01;9.96;85.54
67799;SHT30;54596;43.216;27.904;2023-04-24T03:52:26;10.07;85.22
67799;SHT30;54596;43.216;27.904;2023-04-24T03:54:53;10.06;84.99
67799;SHT30;54596;43.216;27.904;2023-04-24T03:57:18;10.11;85.93
67799;SHT30;54596;43.216;27.904;2023-04-24T03:59:44;10.15;86.02
67799;SHT30;54596;43.216;27.904;2023-04-24T04:02:09;10.20;85.81
67799;SHT30;54596;43.216;27.904;2023-04-24T04:04:35;10.30;86.19
67799;SHT30;54596;43.216;27.904;2023-04-24T04:07:00;10.37;86.03
67799;SHT30;54596;43.216;27.904;2023-04-24T04:09:28;10.42;86.21
67799;SHT30;54596;43.216;27.904;2023-04-24T04:11:53;10.48;86.65
67799;SHT30;54596;43.216;27.904;2023-04-24T04:14:19;10.63;86.13
67799;SHT30;54596;43.216;27.904;2023-04-24T04:16:44;10.66;85.95
67799;SHT30;54596;43.216;27.904;2023-04-24T04:19:10;10.70;86.65
67799;SHT30;54596;43.216;27.904;2023-04-24T04:21:35;10.79;85.97
67799;SHT30;54596;43.216;27.904;2023-04-24T04:24:01;10.89;86.02
67799;SHT30;54596;43.216;27.904;2023-04-24T04:26:26;10.96;85.93
67799;SHT30;54596;43.216;27.904;2023-04-24T04:28:52;11.03;85.42
67799;SHT30;54596;43.216;27.904;2023-04-24T04:31:20;11.04;85.41
67799;SHT30;54596;43.216;27.904;2023-04-24T04:33:46;11.15;85.40
67799;SHT30;54596;43.216;27.904;2023-04-24T04:36:13;11.24;85.77
67799;SHT30;54596;43.216;27.904;2023-04-24T04:38:38;11.32;85.92
67799;SHT30;54596;43.216;27.904;2023-04-24T04:41:05;11.36;86.17
67799;SHT30;54596;43.216;27.904;2023-04-24T04:43:32;11.56;85.49
67799;SHT30;54596;43.216;27.904;2023-04-24T04:45:57;11.74;85.47
67799;SHT30;54596;43.216;27.904;2023-04-24T04:48:23;12.20;84.20
67799;SHT30;54596;43.216;27.904;2023-04-24T04:50:48;13.00;82.10
67799;SHT30;54596;43.216;27.904;2023-04-24T04:53:14;13.76;79.60
67799;SHT30;54596;43.216;27.904;2023-04-24T04:55:40;14.18;77.99
67799;SHT30;54596;43.216;27.904;2023-04-24T04:58:05;14.33;77.57
67799;SHT30;54596;43.216;27.904;2023-04-24T05:00:31;14.85;75.91
67799;SHT30;54596;43.216;27.904;2023-04-24T05:03:01;15.66;74.42
67799;SHT30;54596;43.216;27.904;2023-04-24T05:05:28;16.05;72.87
67799;SHT30;54596;43.216;27.904;2023-04-24T05:07:54;16.32;71.60
67799;SHT30;54596;43.216;27.904;2023-04-24T05:10:20;16.49;71.20
67799;SHT30;54596;43.216;27.904;2023-04-24T05:12:47;17.61;69.07
67799;SHT30;54596;43.216;27.904;2023-04-24T05:15:12;18.36;66.86
67799;SHT30;54596;43.216;27.904;2023-04-24T05:17:39;18.51;65.26
67799;SHT30;54596;43.216;27.904;2023-04-24T05:20:06;18.84;63.87
67799;SHT30;54596;43.216;27.904;2023-04-24T05:22:33;20.17;61.63
67799;SHT30;54596;43.216;27.904;2023-04-24T05:24:59;21.23;58.04
67799;SHT30;54596;43.216;27.904;2023-04-24T05:27:24;20.99;58.38
67799;SHT30;54596;43.216;27.904;2023-04-24T05:29:52;21.84;56.76
67799;SHT30;54596;43.216;27.904;2023-04-24T05:32:17;21.30;57.48
67799;SHT30;54596;43.216;27.904;2023-04-24T05:34:42;21.86;57.30
67799;SHT30;54596;43.216;27.904;2023-04-24T05:37:09;21.09;56.85
67799;SHT30;54596;43.216;27.904;2023-04-24T05:39:36;21.69;56.07
67799;SHT30;54596;43.216;27.904;2023-04-24T05:42:03;23.15;54.44
67799;SHT30;54596;43.216;27.904;2023-04-24T05:44:30;23.50;52.39
67799;SHT30;54596;43.216;27.904;2023-04-24T05:46:55;23.34;51.77
67799;SHT30;54596;43.216;27.904;2023-04-24T05:49:25;23.36;51.54
67799;SHT30;54596;43.216;27.904;2023-04-24T05:51:50;23.16;52.77
67799;SHT30;54596;43.216;27.904;2023-04-24T05:54:16;23.07;53.34
67799;SHT30;54596;43.216;27.904;2023-04-24T05:56:43;22.69;53.87
67799;SHT30;54596;43.216;27.904;2023-04-24T05:59:08;23.34;52.87
67799;SHT30;54596;43.216;27.904;2023-04-24T06:01:36;23.48;52.27
67799;SHT30;54596;43.216;27.904;2023-04-24T06:04:05;22.65;53.84
67799;SHT30;54596;43.216;27.904;2023-04-24T06:06:31;23.30;52.28
67799;SHT30;54596;43.216;27.904;2023-04-24T06:08:58;22.87;52.00
67799;SHT30;54596;43.216;27.904;2023-04-24T06:11:24;23.43;52.05
67799;SHT30;54596;43.216;27.904;2023-04-24T06:13:50;23.28;51.60
67799;SHT30;54596;43.216;27.904;2023-04-24T06:16:17;23.28;51.69
67799;SHT30;54596;43.216;27.904;2023-04-24T06:18:42;23.24;51.96
67799;SHT30;54596;43.216;27.904;2023-04-24T06:21:08;22.61;53.80
67799;SHT30;54596;43.216;27.904;2023-04-24T06:23:33;23.20;52.75
67799;SHT30;54596;43.216;27.904;2023-04-24T06:25:59;22.72;52.41
67799;SHT30;54596;43.216;27.904;2023-04-24T06:28:25;23.39;51.17
67799;SHT30;54596;43.216;27.904;2023-04-24T06:30:51;22.82;51.43
67799;SHT30;54596;43.216;27.904;2023-04-24T06:33:18;22.68;52.30
67799;SHT30;54596;43.216;27.904;2023-04-24T06:35:44;22.65;51.26
67799;SHT30;54596;43.216;27.904;2023-04-24T06:38:09;22.08;53.98
67799;SHT30;54596;43.216;27.904;2023-04-24T06:40:35;23.02;52.55
67799;SHT30;54596;43.216;27.904;2023-04-24T06:43:00;21.96;54.00
67799;SHT30;54596;43.216;27.904;2023-04-24T06:45:29;20.39;58.59
67799;SHT30;54596;43.216;27.904;2023-04-24T06:47:55;22.21;54.80
67799;SHT30;54596;43.216;27.904;2023-04-24T06:50:20;21.79;55.61
67799;SHT30;54596;43.216;27.904;2023-04-24T06:52:46;22.85;54.12
67799;SHT30;54596;43.216;27.904;2023-04-24T06:55:12;23.02;53.61
67799;SHT30;54596;43.216;27.904;2023-04-24T06:57:38;23.81;51.79
67799;SHT30;54596;43.216;27.904;2023-04-24T07:00:05;24.45;50.38
67799;SHT30;54596;43.216;27.904;2023-04-24T07:02:31;23.40;52.21
67799;SHT30;54596;43.216;27.904;2023-04-24T07:04:57;23.05;52.81
67799;SHT30;54596;43.216;27.904;2023-04-24T07:07:22;24.01;51.27
67799;SHT30;54596;43.216;27.904;2023-04-24T07:09:49;24.79;50.08
67799;SHT30;54596;43.216;27.904;2023-04-24T07:12:16;24.55;50.44
67799;SHT30;54596;43.216;27.904;2023-04-24T07:14:42;24.93;49.80
67799;SHT30;54596;43.216;27.904;2023-04-24T07:17:07;24.21;50.79
67799;SHT30;54596;43.216;27.904;2023-04-24T07:19:34;25.43;49.30
67799;SHT30;54596;43.216;27.904;2023-04-24T07:22:00;24.57;50.92
67799;SHT30;54596;43.216;27.904;2023-04-24T07:24:26;24.10;51.43
67799;SHT30;54596;43.216;27.904;2023-04-24T07:26:52;24.62;50.25
67799;SHT30;54596;43.216;27.904;2023-04-24T07:29:18;24.67;50.43
67799;SHT30;54596;43.216;27.904;2023-04-24T07:31:44;25.57;49.40
67799;SHT30;54596;43.216;27.904;2023-04-24T07:34:10;24.27;51.62
67799;SHT30;54596;43.216;27.904;2023-04-24T07:36:36;24.13;51.19
67799;SHT30;54596;43.216;27.904;2023-04-24T07:39:03;24.78;51.01
67799;SHT30;54596;43.216;27.904;2023-04-24T07:41:29;23.82;52.65
67799;SHT30;54596;43.216;27.904;2023-04-24T07:43:54;24.48;51.05
67799;SHT30;54596;43.216;27.904;2023-04-24T07:46:20;25.07;50.00
67799;SHT30;54596;43.216;27.904;2023-04-24T07:48:46;23.03;52.88
67799;SHT30;54596;43.216;27.904;2023-04-24T07:51:14;23.75;51.77
67799;SHT30;54596;43.216;27.904;2023-04-24T07:53:39;24.95;50.25
67799;SHT30;54596;43.216;27.904;2023-04-24T07:56:05;24.30;51.34
67799;SHT30;54596;43.216;27.904;2023-04-24T07:58:30;24.58;50.76
67799;SHT30;54596;43.216;27.904;2023-04-24T08:00:56;24.50;51.01
67799;SHT30;54596;43.216;27.904;2023-04-24T08:03:21;25.43;48.24
67799;SHT30;54596;43.216;27.904;2023-04-24T08:05:47;23.93;50.35
67799;SHT30;54596;43.216;27.904;2023-04-24T08:08:13;23.27;52.37
67799;SHT30;54596;43.216;27.904;2023-04-24T08:10:39;24.09;51.25
67799;SHT30;54596;43.216;27.904;2023-04-24T08:13:04;23.85;51.68
67799;SHT30;54596;43.216;27.904;2023-04-24T08:15:30;23.23;51.82
67799;SHT30;54596;43.216;27.904;2023-04-24T08:17:57;22.50;53.92
67799;SHT30;54596;43.216;27.904;2023-04-24T08:20:23;20.82;57.39
67799;SHT30;54596;43.216;27.904;2023-04-24T08:22:48;20.69;58.34
67799;SHT30;54596;43.216;27.904;2023-04-24T08:25:14;20.41;59.61
67799;SHT30;54596;43.216;27.904;2023-04-24T08:27:40;20.51;59.20
67799;SHT30;54596;43.216;27.904;2023-04-24T08:30:06;20.33;60.27
67799;SHT30;54596;43.216;27.904;2023-04-24T08:32:32;19.03;63.20
67799;SHT30;54596;43.216;27.904;2023-04-24T08:34:58;19.13;63.05
67799;SHT30;54596;43.216;27.904;2023-04-24T08:37:26;18.60;64.06
67799;SHT30;54596;43.216;27.904;2023-04-24T08:39:52;19.02;63.16
67799;SHT30;54596;43.216;27.904;2023-04-24T08:42:19;18.91;63.92
67799;SHT30;54596;43.216;27.904;2023-04-24T08:44:45;18.69;64.29
67799;SHT30;54596;43.216;27.904;2023-04-24T08:47:14;18.25;64.98
67799;SHT30;54596;43.216;27.904;2023-04-24T08:49:41;18.06;64.71
67799;SHT30;54596;43.216;27.904;2023-04-24T08:52:09;17.66;66.11
67799;SHT30;54596;43.216;27.904;2023-04-24T08:54:36;17.59;67.05
67799;SHT30;54596;43.216;27.904;2023-04-24T08:57:03;17.23;66.75
67799;SHT30;54596;43.216;27.904;2023-04-24T08:59:30;16.84;68.38
67799;SHT30;54596;43.216;27.904;2023-04-24T09:01:57;17.23;67.54
67799;SHT30;54596;43.216;27.904;2023-04-24T09:04:24;17.22;68.64
67799;SHT30;54596;43.216;27.904;2023-04-24T09:06:57;16.87;69.65
67799;SHT30;54596;43.216;27.904;2023-04-24T09:09:24;16.92;69.82
67799;SHT30;54596;43.216;27.904;2023-04-24T09:11:51;16.52;71.49
67799;SHT30;54596;43.216;27.904;2023-04-24T09:14:20;15.90;72.34
67799;SHT30;54596;43.216;27.904;2023-04-24T09:16:48;15.59;73.39
67799;SHT30;54596;43.216;27.904;2023-04-24T09:19:16;15.44;74.52
67799;SHT30;54596;43.216;27.904;2023-04-24T09:21:48;15.77;73.84
67799;SHT30;54596;43.216;27.904;2023-04-24T09:24:18;15.71;73.61
67799;SHT30;54596;43.216;27.904;2023-04-24T09:26:58;15.77;73.98
67799;SHT30;54596;43.216;27.904;2023-04-24T09:29:27;15.68;74.36
67799;SHT30;54596;43.216;27.904;2023-04-24T09:31:53;15.74;74.36
67799;SHT30;54596;43.216;27.904;2023-04-24T09:34:24;15.35;73.53
67799;SHT30;54596;43.216;27.904;2023-04-24T09:36:55;15.57;74.25
67799;SHT30;54596;43.216;27.904;2023-04-24T09:39:20;15.32;73.89
67799;SHT30;54596;43.216;27.904;2023-04-24T09:41:54;15.44;73.05
67799;SHT30;54596;43.216;27.904;2023-04-24T09:44:24;15.46;72.89
67799;SHT30;54596;43.216;27.904;2023-04-24T09:46:58;15.11;73.45
67799;SHT30;54596;43.216;27.904;2023-04-24T09:49:26;15.36;73.86
67799;SHT30;54596;43.216;27.904;2023-04-24T09:52:04;15.25;73.82
67799;SHT30;54596;43.216;27.904;2023-04-24T09:54:29;15.01;74.11
67799;SHT30;54596;43.216;27.904;2023-04-24T09:56:57;15.21;74.57
67799;SHT30;54596;43.216;27.904;2023-04-24T09:59:25;15.31;74.36
67799;SHT30;54596;43.216;27.904;2023-04-24T10:01:50;15.38;74.79
67799;SHT30;54596;43.216;27.904;2023-04-24T10:04:25;15.14;74.56
67799;SHT30;54596;43.216;27.904;2023-04-24T10:06:53;15.21;74.84
67799;SHT30;54596;43.216;27.904;2023-04-24T10:09:20;14.97;75.01
67799;SHT30;54596;43.216;27.904;2023-04-24T10:11:48;14.97;75.52
67799;SHT30;54596;43.216;27.904;2023-04-24T10:14:19;15.08;75.26
67799;SHT30;54596;43.216;27.904;2023-04-24T10:16:45;14.99;74.79
67799;SHT30;54596;43.216;27.904;2023-04-24T10:19:12;14.85;76.31
67799;SHT30;54596;43.216;27.904;2023-04-24T10:21:40;14.94;76.40
67799;SHT30;54596;43.216;27.904;2023-04-24T10:24:10;15.11;75.59
67799;SHT30;54596;43.216;27.904;2023-04-24T10:26:36;15.12;75.08
67799;SHT30;54596;43.216;27.904;2023-04-24T10:29:05;15.15;74.44
67799;SHT30;54596;43.216;27.904;2023-04-24T10:31:34;15.07;75.24
67799;SHT30;54596;43.216;27.904;2023-04-24T10:34:01;14.87;76.01
67799;SHT30;54596;43.216;27.904;2023-04-24T10:36:27;14.95;75.86
67799;SHT30;54596;43.216;27.904;2023-04-24T10:38:55;14.87;76.71
67799;SHT30;54596;43.216;27.904;2023-04-24T10:41:25;14.88;75.25
67799;SHT30;54596;43.216;27.904;2023-04-24T10:44:07;15.18;74.78
67799;SHT30;54596;43.216;27.904;2023-04-24T10:46:33;15.12;73.62
67799;SHT30;54596;43.216;27.904;2023-04-24T10:48:59;15.24;73.07
67799;SHT30;54596;43.216;27.904;2023-04-24T10:59:46;14.91;75.91
67799;SHT30;54596;43.216;27.904;2023-04-24T11:02:15;14.91;76.35
67799;SHT30;54596;43.216;27.904;2023-04-24T11:04:44;14.76;77.16
67799;SHT30;54596;43.216;27.904;2023-04-24T11:07:12;14.66;78.11
67799;SHT30;54596;43.216;27.904;2023-04-24T11:09:38;14.69;78.35
67799;SHT30;54596;43.216;27.904;2023-04-24T11:12:08;14.83;78.34
67799;SHT30;54596;43.216;27.904;2023-04-24T11:20:09;14.11;80.06
67799;SHT30;54596;43.216;27.904;2023-04-24T11:22:37;14.40;79.91
67799;SHT30;54596;43.216;27.904;2023-04-24T11:25:05;14.42;80.00
67799;SHT30;54596;43.216;27.904;2023-04-24T11:27:39;14.45;79.88
67799;SHT30;54596;43.216;27.904;2023-04-24T11:30:05;14.07;81.10
67799;SHT30;54596;43.216;27.904;2023-04-24T11:35:09;14.25;80.40
67799;SHT30;54596;43.216;27.904;2023-04-24T11:37:39;14.19;79.88
67799;SHT30;54596;43.216;27.904;2023-04-24T11:40:06;14.10;81.44
67799;SHT30;54596;43.216;27.904;2023-04-24T11:42:45;14.21;80.84
67799;SHT30;54596;43.216;27.904;2023-04-24T11:45:20;14.30;80.78
67799;SHT30;54596;43.216;27.904;2023-04-24T11:47:46;14.02;82.20
67799;SHT30;54596;43.216;27.904;2023-04-24T11:50:17;14.11;81.78
67799;SHT30;54596;43.216;27.904;2023-04-24T11:52:44;14.26;81.24
67799;SHT30;54596;43.216;27.904;2023-04-24T11:57:43;14.24;81.09
67799;SHT30;54596;43.216;27.904;2023-04-24T12:00:16;14.21;80.57
67799;SHT30;54596;43.216;27.904;2023-04-24T12:02:41;14.11;80.36
67799;SHT30;54596;43.216;27.904;2023-04-24T12:05:07;14.15;80.04
67799;SHT30;54596;43.216;27.904;2023-04-24T12:07:41;13.95;80.41
67799;SHT30;54596;43.216;27.904;2023-04-24T12:10:08;14.02;80.40
67799;SHT30;54596;43.216;27.904;2023-04-24T12:12:34;14.12;80.88
67799;SHT30;54596;43.216;27.904;2023-04-24T12:15:01;14.08;80.54
67799;SHT30;54596;43.216;27.904;2023-04-24T12:17:31;14.00;81.34
67799;SHT30;54596;43.216;27.904;2023-04-24T12:19:58;14.05;81.26
67799;SHT30;54596;43.216;27.904;2023-04-24T12:22:25;13.93;81.86
67799;SHT30;54596;43.216;27.904;2023-04-24T12:25:02;14.04;81.49
67799;SHT30;54596;43.216;27.904;2023-04-24T12:27:34;14.17;81.91
67799;SHT30;54596;43.216;27.904;2023-04-24T12:30:01;14.28;81.64
67799;SHT30;54596;43.216;27.904;2023-04-24T12:32:27;14.11;81.44
67799;SHT30;54596;43.216;27.904;2023-04-24T12:34:54;14.04;81.17
67799;SHT30;54596;43.216;27.904;2023-04-24T12:37:20;13.90;82.65
67799;SHT30;54596;43.216;27.904;2023-04-24T12:39:59;13.95;82.91
67799;SHT30;54596;43.216;27.904;2023-04-24T12:42:30;13.81;82.37
67799;SHT30;54596;43.216;27.904;2023-04-24T12:45:01;13.90;83.16
67799;SHT30;54596;43.216;27.904;2023-04-24T12:47:28;14.05;83.18
67799;SHT30;54596;43.216;27.904;2023-04-24T12:49:53;13.98;82.50
67799;SHT30;54596;43.216;27.904;2023-04-24T12:52:24;14.07;82.69
67799;SHT30;54596;43.216;27.904;2023-04-24T12:54:52;14.10;82.88
67799;SHT30;54596;43.216;27.904;2023-04-24T12:57:18;14.05;82.65
67799;SHT30;54596;43.216;27.904;2023-04-24T12:59:44;13.78;83.48
67799;SHT30;54596;43.216;27.904;2023-04-24T13:02:10;13.67;83.35
67799;SHT30;54596;43.216;27.904;2023-04-24T13:04:36;13.78;83.96
67799;SHT30;54596;43.216;27.904;2023-04-24T13:07:01;13.74;83.65
67799;SHT30;54596;43.216;27.904;2023-04-24T13:09:27;13.83;83.15
67799;SHT30;54596;43.216;27.904;2023-04-24T13:11:53;13.71;84.02
67799;SHT30;54596;43.216;27.904;2023-04-24T13:14:19;13.69;83.39
67799;SHT30;54596;43.216;27.904;2023-04-24T13:16:45;13.67;84.15
67799;SHT30;54596;43.216;27.904;2023-04-24T13:19:10;13.50;84.35
67799;SHT30;54596;43.216;27.904;2023-04-24T13:21:36;13.55;84.79
67799;SHT30;54596;43.216;27.904;2023-04-24T13:24:01;13.57;84.64
67799;SHT30;54596;43.216;27.904;2023-04-24T13:26:29;13.52;84.66
67799;SHT30;54596;43.216;27.904;2023-04-24T13:28:54;13.56;84.73
67799;SHT30;54596;43.216;27.904;2023-04-24T13:31:20;13.55;84.43
67799;SHT30;54596;43.216;27.904;2023-04-24T13:33:45;13.66;83.95
67799;SHT30;54596;43.216;27.904;2023-04-24T13:36:10;13.48;84.37
67799;SHT30;54596;43.216;27.904;2023-04-24T13:38:36;13.50;84.01
67799;SHT30;54596;43.216;27.904;2023-04-24T13:41:01;13.60;83.97
67799;SHT30;54596;43.216;27.904;2023-04-24T13:43:27;13.50;83.02
67799;SHT30;54596;43.216;27.904;2023-04-24T13:45:53;13.66;83.70
67799;SHT30;54596;43.216;27.904;2023-04-24T13:48:19;13.62;84.03
67799;SHT30;54596;43.216;27.904;2023-04-24T13:50:44;13.63;83.66
67799;SHT30;54596;43.216;27.904;2023-04-24T13:53:10;13.56;84.32
67799;SHT30;54596;43.216;27.904;2023-04-24T13:55:35;13.46;84.20
67799;SHT30;54596;43.216;27.904;2023-04-24T13:58:02;13.43;84.79
67799;SHT30;54596;43.216;27.904;2023-04-24T14:00:28;13.57;84.44
67799;SHT30;54596;43.216;27.904;2023-04-24T14:02:53;13.43;84.79
67799;SHT30;54596;43.216;27.904;2023-04-24T14:05:19;13.35;84.89
67799;SHT30;54596;43.216;27.904;2023-04-24T14:07:46;13.32;84.70
67799;SHT30;54596;43.216;27.904;2023-04-24T14:10:11;13.25;85.54
67799;SHT30;54596;43.216;27.904;2023-04-24T14:12:37;13.31;85.04
67799;SHT30;54596;43.216;27.904;2023-04-24T14:15:03;13.35;85.31
67799;SHT30;54596;43.216;27.904;2023-04-24T14:17:29;13.29;85.28
67799;SHT30;54596;43.216;27.904;2023-04-24T14:19:55;13.28;85.46
67799;SHT30;54596;43.216;27.904;2023-04-24T14:22:22;13.29;85.67
67799;SHT30;54596;43.216;27.904;2023-04-24T14:24:49;13.28;85.94
67799;SHT30;54596;43.216;27.904;2023-04-24T14:27:14;13.35;85.86
67799;SHT30;54596;43.216;27.904;2023-04-24T14:29:40;13.34;85.62
67799;SHT30;54596;43.216;27.904;2023-04-24T14:32:07;13.29;85.55
67799;SHT30;54596;43.216;27.904;2023-04-24T14:34:34;13.36;85.41
67799;SHT30;54596;43.216;27.904;2023-04-24T14:37:00;13.26;85.63
67799;SHT30;54596;43.216;27.904;2023-04-24T14:39:25;13.15;85.97
67799;SHT30;54596;43.216;27.904;2023-04-24T14:41:51;13.07;85.91
67799;SHT30;54596;43.216;27.904;2023-04-24T14:44:16;13.07;86.34
67799;SHT30;54596;43.216;27.904;2023-04-24T14:46:42;13.14;86.01
67799;SHT30;54596;43.216;27.904;2023-04-24T14:49:08;13.26;85.63
67799;SHT30;54596;43.216;27.904;2023-04-24T14:51:35;13.28;85.60
67799;SHT30;54596;43.216;27.904;2023-04-24T14:54:01;13.21;85.45
67799;SHT30;54596;43.216;27.904;2023-04-24T14:56:26;13.16;85.51
67799;SHT30;54596;43.216;27.904;2023-04-24T14:58:52;13.22;85.38
67799;SHT30;54596;43.216;27.904;2023-04-24T15:01:18;13.32;85.29
67799;SHT30;54596;43.216;27.904;2023-04-24T15:03:44;13.07;85.84
67799;SHT30;54596;43.216;27.904;2023-04-24T15:06:09;13.08;86.48
67799;SHT30;54596;43.216;27.904;2023-04-24T15:08:35;13.08;86.06
67799;SHT30;54596;43.216;27.904;2023-04-24T15:11:01;13.21;85.77
67799;SHT30;54596;43.216;27.904;2023-04-24T15:13:26;13.23;85.85
67799;SHT30;54596;43.216;27.904;2023-04-24T15:15:52;13.18;85.92
67799;SHT30;54596;43.216;27.904;2023-04-24T15:18:17;13.14;86.12
67799;SHT30;54596;43.216;27.904;2023-04-24T15:20:43;13.22;86.08
67799;SHT30;54596;43.216;27.904;2023-04-24T15:23:09;13.08;86.39
67799;SHT30;54596;43.216;27.904;2023-04-24T15:25:35;13.15;86.29
67799;SHT30;54596;43.216;27.904;2023-04-24T15:28:01;13.03;85.85
67799;SHT30;54596;43.216;27.904;2023-04-24T15:30:27;13.18;85.68
67799;SHT30;54596;43.216;27.904;2023-04-24T15:32:53;13.23;85.97
67799;SHT30;54596;43.216;27.904;2023-04-24T15:35:18;13.21;86.31